Terminal Aerodrome Forecast
Issued by NWS

Home | Current Version | Previous Version | Text Only | Print | Product List | Glossary On
Versions: 1 2 3 4 5 6 7 8 9 10 11 12 13 14 15 16
000
FTUS42 KMLB 031732
TAFTIX
TAF
KTIX 031732Z 0318/0418 10010KT P6SM SCT035 BKN150
     FM040000 09004KT P6SM SCT250
     FM041500 05008KT P6SM BKN040=

USA.gov is the U.S. government's official web portal to all federal, state and local government web resources and services.